Aktuální počasí v Česku a ve světě - METAR

Seznam meteostanic umístěných nejčasteji na letišti v ČR a ve světě

Vyhledat místa podle abecedy:
A B C D E F G H I J K L M N O P Q R S T U V W X Y Z

Filtrovat:

ID stanice:
a/nebo
Název místa (fulltext):
 
Místo (ID)Naposledy načteno 
Vagar (EKVG) 16.07.2020 13:50 UTC Zobrazit METAR
EKVG 161350Z AUTO 22009KT 9999 BKN005/// BKN026/// 11/11 Q1002
Valencia (LEVC) 16.07.2020 14:00 UTC Zobrazit METAR
LEVC 161400Z 12009KT 080V170 9999 FEW035 29/20 Q1017 NOSIG
Varna (LBWN) 16.07.2020 14:00 UTC Zobrazit METAR
LBWN 161400Z 13014KT CAVOK 25/15 Q1011 NOSIG
Verona (LIPX) 16.07.2020 13:50 UTC Zobrazit METAR
LIPX 161350Z 21006KT 170V250 9999 SCT040 28/16 Q1013
Vienna (LOWW) 16.07.2020 13:50 UTC Zobrazit METAR
LOWW 161350Z 33010KT 9999 SCT045 22/13 Q1014 NOSIG
Vientiane (VLVT) 16.07.2020 14:00 UTC Zobrazit METAR
VLVT 161400Z 00000KT 5000 BR SCT040 26/25 Q1007 NOSIG
Vieuxfort (TLPL) 16.07.2020 14:00 UTC Zobrazit METAR
TLPL 161400Z 13014KT 9999 BKN025 30/25 Q1015 NOSIG
Vilnius (EYVI) 16.07.2020 13:50 UTC Zobrazit METAR
EYVI 161350Z 10004KT 050V190 CAVOK 24/09 Q1011 NOSIG
Vitebsk (UMII) Zatím nenačteno  
Volgograd (URWW) Zatím nenačteno  
Voronezh (UUOO) Zatím nenačteno  
Reklama

Počasí na Váš email

Emaily jsou bez reklamy a bez spamu



Odhlásit newsletter



❤️ Podpořte nás

Napište o nás recenzi na Google
Ohodnoťte nás na Firmy.cz

Pošlete nám finanční podporu - firma nedostala žádné dotace ani podporu z Coronaviru, zato letos platíme vyšší daně.
Další české internetové stránky (nejen) o počasí najdete v katalogu TOPlist - weby o počasí nebo vyhledejte na internetu, co jste tu na 🌞 Slunečnu ⛅ zatím nenašli:
⬆️ Posunout nahoru ⬆️
Reklama